createdAt,value
2019-06-27T00:00:09.589Z,14.30
2019-06-27T00:02:36.729Z,13.90
2019-06-27T00:05:04.142Z,11.90
2019-06-27T00:07:31.135Z,14.93
2019-06-27T00:09:58.183Z,11.85
2019-06-27T00:12:26.261Z,13.10
2019-06-27T00:14:53.307Z,11.00
2019-06-27T00:17:20.363Z,11.63
2019-06-27T00:19:48.223Z,13.77
2019-06-27T00:22:15.268Z,13.13
2019-06-27T00:24:42.274Z,14.32
2019-06-27T00:27:09.372Z,13.73
2019-06-27T00:29:36.418Z,12.15
2019-06-27T00:32:03.466Z,13.73
2019-06-27T00:34:30.520Z,13.05
2019-06-27T00:36:57.676Z,13.80
2019-06-27T00:39:24.714Z,13.88
2019-06-27T00:41:51.760Z,12.88
2019-06-27T00:44:18.816Z,14.63
2019-06-27T00:46:45.858Z,12.27
2019-06-27T00:49:12.905Z,13.88
2019-06-27T00:51:39.959Z,14.80
2019-06-27T00:54:07.003Z,15.13
2019-06-27T00:56:34.155Z,15.30
2019-06-27T00:59:01.203Z,15.18
2019-06-27T01:01:28.256Z,14.65
2019-06-27T01:03:55.302Z,13.82
2019-06-27T01:06:22.303Z,16.35
2019-06-27T01:08:49.501Z,16.15
2019-06-27T01:11:18.147Z,15.52
2019-06-27T01:13:45.336Z,19.95
2019-06-27T01:16:12.487Z,16.10
2019-06-27T01:18:39.743Z,16.95
2019-06-27T01:21:06.791Z,16.35
2019-06-27T01:23:34.043Z,17.25
2019-06-27T01:26:01.091Z,17.27
2019-06-27T01:28:28.145Z,18.25
2019-06-27T01:30:55.189Z,18.98
2019-06-27T01:33:22.238Z,17.70
2019-06-27T01:35:49.243Z,23.65
2019-06-27T01:38:16.291Z,18.17
2019-06-27T01:40:43.793Z,18.30
2019-06-27T01:43:10.796Z,16.60
2019-06-27T01:45:38.537Z,17.83
2019-06-27T01:48:05.660Z,19.65
2019-06-27T01:50:32.703Z,19.40
2019-06-27T01:52:59.753Z,20.23
2019-06-27T01:55:26.807Z,19.67
2019-06-27T01:57:53.852Z,20.20
2019-06-27T02:00:20.900Z,22.50
2019-06-27T02:02:47.962Z,21.02
2019-06-27T02:05:15.105Z,20.20
2019-06-27T02:07:42.163Z,23.70
2019-06-27T02:10:09.260Z,21.87
2019-06-27T02:12:36.308Z,22.10
2019-06-27T02:15:03.417Z,21.08
2019-06-27T02:17:30.445Z,22.90
2019-06-27T02:19:57.494Z,22.55
2019-06-27T02:22:24.547Z,21.98
2019-06-27T02:24:52.737Z,26.77
2019-06-27T02:27:19.772Z,24.95
2019-06-27T02:29:46.813Z,22.27
2019-06-27T02:32:13.863Z,22.80
2019-06-27T02:34:40.917Z,22.75
2019-06-27T02:37:07.920Z,26.40
2019-06-27T02:39:35.010Z,23.23
2019-06-27T02:42:02.163Z,24.12
2019-06-27T02:44:29.159Z,22.65
2019-06-27T02:46:56.257Z,23.15
2019-06-27T02:49:23.305Z,22.48
2019-06-27T02:51:50.361Z,23.05
2019-06-27T02:54:18.941Z,23.92
2019-06-27T02:56:45.988Z,22.77
2019-06-27T02:59:13.042Z,24.05
2019-06-27T03:01:40.699Z,24.83
2019-06-27T03:04:07.748Z,22.23
2019-06-27T03:06:34.802Z,22.35
2019-06-27T03:09:02.152Z,21.55
2019-06-27T03:11:29.201Z,21.85
2019-06-27T03:13:56.306Z,21.52
2019-06-27T03:16:23.406Z,21.08
2019-06-27T03:18:50.455Z,27.58
2019-06-27T03:21:17.503Z,20.85
2019-06-27T03:23:44.654Z,21.15
2019-06-27T03:26:11.709Z,20.58
2019-06-27T03:28:51.640Z,20.70
2019-06-27T03:31:07.241Z,19.92
2019-06-27T03:33:34.288Z,20.52
2019-06-27T03:36:01.368Z,20.42
2019-06-27T03:38:29.303Z,21.10
2019-06-27T03:40:56.343Z,20.50
2019-06-27T03:43:23.393Z,20.05
2019-06-27T03:45:51.018Z,20.02
2019-06-27T03:48:18.217Z,21.60
2019-06-27T03:50:45.303Z,20.50
2019-06-27T03:53:12.305Z,19.60
2019-06-27T03:55:39.360Z,19.42
2019-06-27T03:58:06.403Z,20.12
2019-06-27T04:00:33.572Z,18.80
2019-06-27T04:03:00.750Z,19.35
2019-06-27T04:05:27.752Z,19.12
2019-06-27T04:07:54.813Z,20.40
2019-06-27T04:10:21.850Z,19.67
2019-06-27T04:12:48.900Z,20.33
2019-06-27T04:15:15.911Z,20.83
2019-06-27T04:17:42.999Z,22.15
2019-06-27T04:20:10.044Z,19.77
2019-06-27T04:22:37.100Z,23.65
2019-06-27T04:25:04.143Z,21.25
2019-06-27T04:27:31.147Z,19.62
2019-06-27T04:29:58.248Z,20.00
2019-06-27T04:32:25.294Z,19.60
2019-06-27T04:34:52.312Z,20.25
2019-06-27T04:37:19.390Z,19.50
2019-06-27T04:39:46.438Z,20.62
2019-06-27T04:42:13.482Z,20.62
2019-06-27T04:44:41.767Z,20.80
2019-06-27T04:47:08.812Z,19.15
2019-06-27T04:49:35.861Z,20.83
2019-06-27T04:52:03.316Z,25.55
2019-06-27T04:54:30.369Z,20.62
2019-06-27T04:56:57.418Z,20.52
2019-06-27T04:59:24.459Z,20.88
2019-06-27T05:01:51.515Z,20.85
2019-06-27T05:04:18.665Z,20.05
2019-06-27T05:06:45.711Z,22.48
2019-06-27T05:09:12.758Z,21.52
2019-06-27T05:11:39.813Z,21.48
2019-06-27T05:14:06.854Z,21.65
2019-06-27T05:16:33.904Z,19.52
2019-06-27T05:19:00.903Z,19.27
2019-06-27T05:21:28.004Z,20.12
2019-06-27T05:23:55.049Z,21.00
2019-06-27T05:26:21.996Z,19.05
2019-06-27T05:28:49.043Z,20.48
2019-06-27T05:31:16.116Z,20.83
2019-06-27T05:33:43.145Z,23.38
2019-06-27T05:36:10.193Z,21.90
2019-06-27T05:38:37.280Z,21.42
2019-06-27T05:41:04.394Z,22.08
2019-06-27T05:43:31.440Z,21.83
2019-06-27T05:45:58.487Z,24.02
2019-06-27T05:48:25.541Z,21.65
2019-06-27T05:50:52.584Z,25.00
2019-06-27T05:53:19.632Z,24.60
2019-06-27T05:55:46.686Z,25.27
2019-06-27T05:58:15.473Z,25.17
2019-06-27T06:00:42.524Z,25.52
2019-06-27T06:03:09.581Z,27.15
2019-06-27T06:05:36.616Z,25.58
2019-06-27T06:08:03.672Z,28.00
2019-06-27T06:10:30.714Z,37.03
2019-06-27T06:12:57.763Z,28.10
2019-06-27T06:15:24.821Z,31.98
2019-06-27T06:17:51.884Z,27.10
2019-06-27T06:20:19.015Z,28.40
2019-06-27T06:22:46.486Z,27.62
2019-06-27T06:25:13.648Z,29.77
2019-06-27T06:27:40.675Z,30.62
2019-06-27T06:30:07.820Z,28.50
2019-06-27T06:32:34.878Z,25.85
2019-06-27T06:35:01.918Z,28.00
2019-06-27T06:37:28.936Z,29.55
2019-06-27T06:39:56.019Z,29.33
2019-06-27T06:42:23.266Z,30.58
2019-06-27T06:44:50.407Z,26.73
2019-06-27T06:47:17.428Z,27.23
2019-06-27T06:49:44.478Z,28.20
2019-06-27T06:52:11.467Z,28.12
2019-06-27T06:54:38.511Z,28.52
2019-06-27T06:57:05.865Z,27.15
2019-06-27T06:59:32.920Z,27.23
2019-06-27T07:01:59.964Z,24.48
2019-06-27T07:04:27.012Z,24.55
2019-06-27T07:06:54.066Z,26.85
2019-06-27T07:09:21.109Z,28.40
2019-06-27T07:11:48.264Z,26.87
2019-06-27T07:14:15.310Z,29.90
2019-06-27T07:16:42.364Z,29.37
2019-06-27T07:19:09.406Z,25.65
2019-06-27T07:21:36.454Z,24.98
2019-06-27T07:24:03.476Z,27.90
2019-06-27T07:26:30.554Z,28.02
2019-06-27T07:29:12.631Z,24.92
2019-06-27T07:31:39.707Z,27.92
2019-06-27T07:34:06.753Z,31.15
2019-06-27T07:36:33.805Z,25.95
2019-06-27T07:39:00.950Z,28.25
2019-06-27T07:41:28.005Z,32.17
2019-06-27T07:43:55.048Z,32.38
2019-06-27T07:46:25.559Z,32.95
2019-06-27T07:48:49.248Z,35.85
2019-06-27T07:51:16.301Z,33.13
2019-06-27T07:53:43.344Z,34.88
2019-06-27T07:56:10.352Z,30.55
2019-06-27T07:58:37.448Z,35.13
2019-06-27T08:01:04.490Z,30.00
2019-06-27T08:03:31.540Z,35.30
2019-06-27T08:05:58.623Z,37.78
2019-06-27T08:08:25.943Z,37.28
2019-06-27T08:10:53.031Z,37.60
2019-06-27T08:13:20.141Z,37.08
2019-06-27T08:15:47.197Z,41.85
2019-06-27T08:18:14.242Z,36.88
2019-06-27T08:20:41.498Z,40.00
2019-06-27T08:23:08.543Z,37.75
2019-06-27T08:25:35.556Z,41.10
2019-06-27T08:28:02.841Z,43.53
2019-06-27T08:30:29.891Z,36.55
2019-06-27T08:32:56.945Z,39.40
2019-06-27T08:35:24.296Z,45.28
2019-06-27T08:37:51.304Z,36.33
2019-06-27T08:40:18.398Z,40.40
2019-06-27T08:42:45.750Z,41.80
2019-06-27T08:45:12.900Z,45.38
2019-06-27T08:47:39.961Z,47.33
2019-06-27T08:50:07.202Z,39.92
2019-06-27T08:52:34.249Z,32.92
2019-06-27T08:55:01.303Z,39.35
2019-06-27T08:57:28.333Z,41.45
2019-06-27T08:59:55.396Z,42.17
2019-06-27T09:02:22.450Z,43.60
2019-06-27T09:04:49.529Z,46.45
2019-06-27T09:07:16.601Z,46.88
2019-06-27T09:09:43.595Z,41.88
2019-06-27T09:12:10.641Z,47.50
2019-06-27T09:14:37.690Z,44.60
2019-06-27T09:17:04.767Z,42.35
2019-06-27T09:19:31.892Z,39.70
2019-06-27T09:22:07.745Z,38.30
2019-06-27T09:24:35.410Z,45.33
2019-06-27T09:27:02.454Z,38.15
2019-06-27T09:29:29.504Z,42.28
2019-06-27T09:31:56.558Z,37.05
2019-06-27T09:34:23.598Z,39.30
2019-06-27T09:36:50.795Z,35.20
2019-06-27T09:39:17.898Z,39.35
2019-06-27T09:41:44.902Z,38.13
2019-06-27T09:44:11.892Z,38.13
2019-06-27T09:46:38.942Z,32.53
2019-06-27T09:49:06.040Z,33.10
2019-06-27T09:51:33.145Z,34.30
2019-06-27T09:54:00.195Z,33.25
2019-06-27T09:56:27.238Z,34.53
2019-06-27T09:58:54.239Z,36.78
2019-06-27T10:01:21.335Z,36.50
2019-06-27T10:03:48.385Z,40.33
2019-06-27T10:06:15.537Z,36.53
2019-06-27T10:08:42.638Z,36.60
2019-06-27T10:11:09.748Z,35.92
2019-06-27T10:13:36.796Z,38.22
2019-06-27T10:16:04.239Z,40.38
2019-06-27T10:18:31.247Z,33.42
2019-06-27T10:20:58.343Z,35.58
2019-06-27T10:23:25.698Z,38.53
2019-06-27T10:25:52.738Z,42.50
2019-06-27T10:28:19.799Z,42.17
2019-06-27T10:30:49.120Z,44.28
2019-06-27T10:33:14.199Z,38.03
2019-06-27T10:35:41.244Z,41.67
2019-06-27T10:38:08.491Z,34.53
2019-06-27T10:40:35.642Z,33.35
2019-06-27T10:43:02.698Z,41.72
2019-06-27T10:45:29.741Z,43.47
2019-06-27T10:47:56.787Z,41.08
2019-06-27T10:50:24.858Z,43.42
2019-06-27T10:52:51.914Z,43.65
2019-06-27T10:55:18.955Z,45.10
2019-06-27T10:57:46.003Z,39.97
2019-06-27T11:00:13.057Z,37.80
2019-06-27T11:02:40.100Z,34.97
2019-06-27T11:05:07.558Z,31.27
2019-06-27T11:07:34.605Z,42.53
2019-06-27T11:10:01.669Z,45.80
2019-06-27T11:12:28.702Z,31.27
2019-06-27T11:14:59.636Z,28.30
2019-06-27T11:17:22.908Z,26.20
2019-06-27T11:19:52.631Z,29.98
2019-06-27T11:22:19.351Z,31.45
2019-06-27T11:24:46.410Z,19.12
2019-06-27T11:27:13.629Z,19.10
2019-06-27T11:29:40.598Z,17.45
2019-06-27T11:35:06.235Z,20.35
2019-06-27T11:37:33.292Z,18.17
2019-06-27T11:40:02.072Z,24.83
2019-06-27T11:42:29.967Z,23.50
2019-06-27T11:44:56.234Z,15.38
2019-06-27T11:47:23.785Z,18.95
2019-06-27T11:49:50.877Z,26.25
2019-06-27T11:52:18.130Z,16.17
2019-06-27T11:54:45.177Z,17.02
2019-06-27T11:57:12.233Z,20.52
2019-06-27T11:59:39.480Z,34.00
2019-06-27T12:02:06.531Z,31.62
2019-06-27T12:04:33.637Z,33.78
2019-06-27T12:07:03.350Z,23.70
2019-06-27T12:09:30.445Z,27.92
2019-06-27T12:11:57.487Z,26.23
2019-06-27T12:14:26.586Z,26.25
2019-06-27T12:16:53.633Z,22.85
2019-06-27T12:19:20.678Z,23.95
2019-06-27T12:21:48.345Z,23.12
2019-06-27T12:24:15.397Z,22.37
2019-06-27T12:26:42.434Z,20.42
2019-06-27T12:29:09.994Z,19.62
2019-06-27T12:31:36.997Z,19.00
2019-06-27T12:34:07.298Z,18.15
2019-06-27T12:36:31.622Z,28.20
2019-06-27T12:38:58.703Z,23.50
2019-06-27T12:41:25.745Z,29.00
2019-06-27T12:43:52.904Z,26.45
2019-06-27T12:46:19.955Z,29.87
2019-06-27T12:48:47.000Z,24.35
2019-06-27T12:51:14.040Z,24.50
2019-06-27T12:53:41.091Z,25.85
2019-06-27T12:56:08.147Z,24.90
2019-06-27T12:58:35.193Z,24.08
2019-06-27T13:01:02.341Z,21.10
2019-06-27T13:03:29.384Z,26.33
2019-06-27T13:05:56.439Z,21.85
2019-06-27T13:08:23.479Z,23.02
2019-06-27T13:10:50.526Z,18.98
2019-06-27T13:13:17.580Z,20.90
2019-06-27T13:15:44.623Z,15.00
2019-06-27T13:18:11.671Z,18.92
2019-06-27T13:20:53.097Z,18.83
2019-06-27T13:23:05.885Z,21.45
2019-06-27T13:25:34.309Z,23.08
2019-06-27T13:28:01.304Z,19.33
2019-06-27T13:30:28.343Z,18.58
2019-06-27T13:32:55.397Z,23.83
2019-06-27T13:35:22.951Z,19.45
2019-06-27T13:37:50.021Z,19.17
2019-06-27T13:40:17.155Z,15.65
2019-06-27T13:42:44.505Z,16.02
2019-06-27T13:45:11.511Z,18.37
2019-06-27T13:47:38.499Z,17.20
2019-06-27T13:50:06.162Z,17.83
2019-06-27T13:52:33.313Z,18.35
2019-06-27T13:55:00.368Z,17.10
2019-06-27T13:57:27.612Z,26.62
2019-06-27T13:59:54.671Z,25.95
2019-06-27T14:02:21.711Z,27.42
2019-06-27T14:04:56.986Z,22.20
2019-06-27T14:07:16.115Z,19.90
2019-06-27T14:09:53.661Z,25.17
2019-06-27T14:12:10.415Z,20.88
2019-06-27T14:14:37.569Z,19.87
2019-06-27T14:17:04.612Z,18.08
2019-06-27T14:19:31.618Z,16.33
2019-06-27T14:21:58.988Z,22.80
2019-06-27T14:24:25.862Z,16.67
2019-06-27T14:26:53.517Z,17.77
2019-06-27T14:29:20.564Z,20.33
2019-06-27T14:31:47.619Z,22.50
2019-06-27T14:34:14.662Z,19.87
2019-06-27T14:36:41.712Z,18.33
2019-06-27T14:39:08.762Z,17.73
2019-06-27T14:41:35.806Z,18.87
2019-06-27T14:44:03.678Z,23.92
2019-06-27T14:46:30.720Z,19.55
2019-06-27T14:48:57.769Z,16.85
2019-06-27T14:51:25.386Z,19.15
2019-06-27T14:53:52.479Z,16.17
2019-06-27T14:56:19.582Z,16.70
2019-06-27T14:58:46.679Z,17.98
2019-06-27T15:01:13.843Z,14.45
2019-06-27T15:03:40.935Z,23.42
2019-06-27T15:06:08.037Z,15.68
2019-06-27T15:08:35.080Z,15.05
2019-06-27T15:11:02.606Z,13.45
2019-06-27T15:13:30.098Z,13.45
2019-06-27T15:16:10.814Z,18.70
2019-06-27T15:18:24.370Z,12.52
2019-06-27T15:20:51.474Z,11.73
2019-06-27T15:23:18.490Z,13.73
2019-06-27T15:25:45.848Z,18.42
2019-06-27T15:28:12.892Z,10.93
2019-06-27T15:30:39.939Z,15.02
2019-06-27T15:33:07.300Z,17.33
2019-06-27T15:35:50.916Z,14.65
2019-06-27T15:38:01.513Z,11.02
2019-06-27T15:40:29.257Z,10.05
2019-06-27T15:42:56.264Z,12.35
2019-06-27T15:45:23.457Z,9.90
2019-06-27T15:47:50.762Z,16.30
2019-06-27T15:50:17.864Z,9.63
2019-06-27T15:52:44.906Z,15.70
2019-06-27T15:55:12.499Z,17.12
2019-06-27T15:57:39.113Z,21.12
2019-06-27T16:00:06.261Z,19.98
2019-06-27T16:02:33.304Z,9.48
2019-06-27T16:05:00.351Z,9.93
2019-06-27T16:07:27.416Z,10.13
2019-06-27T16:09:54.447Z,10.82
2019-06-27T16:12:21.450Z,17.35
2019-06-27T16:14:48.548Z,13.75
2019-06-27T16:17:15.591Z,13.43
2019-06-27T16:19:42.638Z,12.30
2019-06-27T16:22:09.693Z,9.80
2019-06-27T16:24:38.476Z,9.25
2019-06-27T16:27:05.479Z,12.18
2019-06-27T16:29:32.573Z,12.93
2019-06-27T16:31:59.619Z,10.23
2019-06-27T16:34:28.988Z,13.73
2019-06-27T16:36:53.828Z,16.80
2019-06-27T16:39:20.974Z,13.65
2019-06-27T16:41:48.902Z,19.73
2019-06-27T16:44:15.984Z,14.57
2019-06-27T16:46:43.053Z,11.57
2019-06-27T16:49:10.045Z,13.02
2019-06-27T16:51:37.203Z,14.98
2019-06-27T16:54:04.279Z,17.77
2019-06-27T16:56:31.563Z,14.65
2019-06-27T16:59:00.115Z,16.45
2019-06-27T17:01:27.226Z,21.70
2019-06-27T17:03:55.672Z,19.10
2019-06-27T17:06:40.838Z,21.05
2019-06-27T17:08:53.536Z,22.42
2019-06-27T17:11:20.558Z,22.67
2019-06-27T17:13:47.730Z,22.25
2019-06-27T17:16:14.756Z,25.83
2019-06-27T17:18:41.832Z,29.40
2019-06-27T17:21:08.872Z,25.73
2019-06-27T17:23:35.921Z,24.37
2019-06-27T17:26:02.975Z,25.12
2019-06-27T17:28:30.020Z,27.60
2019-06-27T17:30:57.157Z,26.50
2019-06-27T17:33:24.216Z,27.02
2019-06-27T17:35:53.169Z,29.55
2019-06-27T17:38:22.005Z,30.80
2019-06-27T17:40:50.275Z,31.67
2019-06-27T17:43:17.336Z,30.92
2019-06-27T17:45:44.371Z,33.30
2019-06-27T17:48:11.421Z,33.05
2019-06-27T17:50:38.473Z,31.52
2019-06-27T17:53:05.518Z,33.97
2019-06-27T17:55:32.568Z,33.60
2019-06-27T17:57:59.578Z,36.42
2019-06-27T18:00:26.661Z,32.70
2019-06-27T18:02:53.711Z,35.55
2019-06-27T18:05:21.129Z,35.65
2019-06-27T18:07:48.221Z,36.40
2019-06-27T18:10:15.372Z,38.03
2019-06-27T18:12:42.616Z,36.22
2019-06-27T18:15:09.675Z,36.85
2019-06-27T18:17:36.967Z,36.70
2019-06-27T18:20:04.293Z,38.75
2019-06-27T18:22:32.976Z,38.90
2019-06-27T18:25:00.216Z,42.30
2019-06-27T18:27:27.993Z,42.45
2019-06-27T18:32:37.437Z,42.10
2019-06-27T18:35:04.589Z,41.50
2019-06-27T18:37:31.547Z,44.22
2019-06-27T18:39:58.580Z,44.10
2019-06-27T18:42:25.627Z,42.53
2019-06-27T18:44:54.581Z,46.63
2019-06-27T18:47:22.183Z,45.80
2019-06-27T18:49:49.231Z,44.92
2019-06-27T18:52:16.270Z,46.33
2019-06-27T18:54:43.776Z,45.92
2019-06-27T18:57:10.784Z,45.38
2019-06-27T18:59:37.794Z,45.25
2019-06-27T19:02:05.164Z,46.42
2019-06-27T19:04:32.137Z,47.03
2019-06-27T19:06:59.191Z,44.65
2019-06-27T19:09:26.646Z,44.90
2019-06-27T19:11:55.122Z,42.65
2019-06-27T19:14:22.176Z,44.30
2019-06-27T19:16:50.862Z,45.30
2019-06-27T19:19:20.058Z,43.33
2019-06-27T19:21:52.736Z,44.13
2019-06-27T19:24:29.734Z,45.38
2019-06-27T19:26:56.874Z,45.03
2019-06-27T19:29:32.729Z,43.75
2019-06-27T19:32:00.496Z,43.97
2019-06-27T19:34:28.894Z,43.45
2019-06-27T19:36:57.472Z,44.30
2019-06-27T19:39:25.576Z,42.90
2019-06-27T19:41:56.993Z,42.88
2019-06-27T19:44:22.825Z,47.40
2019-06-27T19:46:51.207Z,47.97
2019-06-27T19:49:19.684Z,48.58
2019-06-27T19:51:48.380Z,50.35
2019-06-27T19:54:17.046Z,51.13
2019-06-27T19:56:45.611Z,50.28
2019-06-27T19:59:14.148Z,50.55
2019-06-27T20:01:42.833Z,51.15
2019-06-27T20:04:11.772Z,53.33
2019-06-27T20:06:40.524Z,51.00
2019-06-27T20:09:07.737Z,51.17
2019-06-27T20:11:34.876Z,50.03
2019-06-27T20:14:02.026Z,50.95
2019-06-27T20:16:29.176Z,51.53
2019-06-27T20:18:56.448Z,52.62
2019-06-27T20:21:23.575Z,50.92
2019-06-27T20:23:50.629Z,50.50
2019-06-27T20:26:17.673Z,51.35
2019-06-27T20:28:45.949Z,52.58
2019-06-27T20:31:13.006Z,53.67
2019-06-27T20:33:40.048Z,52.10
2019-06-27T20:36:07.199Z,52.10
2019-06-27T20:38:35.427Z,53.58
2019-06-27T20:41:01.402Z,52.38
2019-06-27T20:43:28.666Z,61.67
2019-06-27T20:45:55.802Z,56.03
2019-06-27T20:48:22.852Z,58.25
2019-06-27T20:50:50.721Z,60.97
2019-06-27T20:53:17.976Z,59.55
2019-06-27T20:55:45.020Z,59.88
2019-06-27T20:58:12.070Z,58.75
2019-06-27T21:00:39.124Z,63.22
2019-06-27T21:03:06.273Z,59.45
2019-06-27T21:05:33.315Z,61.97
2019-06-27T21:08:00.364Z,59.25
2019-06-27T21:10:27.423Z,60.78
2019-06-27T21:12:54.459Z,60.60
2019-06-27T21:15:21.510Z,60.83
2019-06-27T21:17:49.354Z,64.12
2019-06-27T21:20:16.506Z,61.37
2019-06-27T21:22:45.979Z,60.38
2019-06-27T21:25:10.730Z,61.90
2019-06-27T21:27:37.788Z,59.88
2019-06-27T21:30:04.933Z,60.75
2019-06-27T21:32:32.251Z,60.45
2019-06-27T21:34:59.743Z,61.28
2019-06-27T21:37:26.911Z,63.50
2019-06-27T21:39:54.042Z,64.07
2019-06-27T21:42:21.092Z,63.00
2019-06-27T21:44:48.145Z,62.28
2019-06-27T21:47:15.188Z,64.62
2019-06-27T21:49:42.238Z,63.20
2019-06-27T21:52:09.357Z,65.30
2019-06-27T21:54:36.446Z,65.78
2019-06-27T21:57:03.469Z,63.80
2019-06-27T21:59:30.513Z,65.70
2019-06-27T22:01:57.592Z,66.85
2019-06-27T22:04:24.592Z,65.30
2019-06-27T22:06:51.709Z,69.55
2019-06-27T22:09:25.151Z,67.87
2019-06-27T22:11:45.984Z,68.30
2019-06-27T22:14:13.134Z,70.00
2019-06-27T22:16:40.260Z,69.97
2019-06-27T22:19:07.436Z,68.15
2019-06-27T22:21:34.487Z,68.75
2019-06-27T22:24:01.530Z,71.75
2019-06-27T22:26:28.844Z,71.37
2019-06-27T22:28:55.941Z,73.55
2019-06-27T22:31:22.983Z,70.68
2019-06-27T22:33:50.444Z,71.55
2019-06-27T22:36:17.448Z,70.68
2019-06-27T22:38:50.688Z,72.45
2019-06-27T22:41:23.569Z,73.10
2019-06-27T22:43:58.166Z,71.85
2019-06-27T22:46:32.308Z,71.55
2019-06-27T22:48:59.060Z,76.30
2019-06-27T22:51:36.138Z,75.15
2019-06-27T22:54:03.285Z,73.85
2019-06-27T22:56:32.351Z,75.20
2019-06-27T22:58:59.430Z,73.57
2019-06-27T23:01:26.479Z,74.15
2019-06-27T23:03:53.480Z,76.18
2019-06-27T23:06:20.575Z,80.18
2019-06-27T23:08:47.631Z,77.97
2019-06-27T23:11:14.679Z,82.07
2019-06-27T23:13:41.829Z,77.65
2019-06-27T23:16:08.981Z,78.00
2019-06-27T23:18:36.025Z,79.07
2019-06-27T23:21:03.081Z,77.55
2019-06-27T23:23:30.129Z,77.55
2019-06-27T23:25:57.177Z,80.03
2019-06-27T23:28:24.223Z,82.90
2019-06-27T23:30:51.271Z,79.87
2019-06-27T23:33:18.422Z,74.95
2019-06-27T23:35:45.471Z,77.85
2019-06-27T23:38:12.417Z,78.45
2019-06-27T23:40:39.462Z,72.40
2019-06-27T23:43:06.519Z,77.53
2019-06-27T23:45:33.564Z,81.45
2019-06-27T23:48:00.611Z,82.28
2019-06-27T23:50:27.661Z,83.28
2019-06-27T23:52:54.716Z,80.55
2019-06-27T23:55:21.756Z,83.00
2019-06-27T23:57:48.757Z,81.37
